Stow, Maine
Current Conditions -  °F | °C
As of 7:54 AM on Wednesday 22 Oct 2014 (Local Time) from KIZG Reporting Station
Overcast Overcast  
Wind Chill: 41°   Ceiling: 1400
Heat Index: 46°   Visibility: 8mi
Dew Point: 44°   Wind: 10mph
Humidity: 93%   Direction: 20°NNE
Pressure: 30.18"   Gusts: NA
Location:  44.0478°N, 70.9547°W
Report Text: KIZG 221154Z AUTO 02009KT 8SM FEW010 BKN014 OVC024 08/07 A3018 RMK AO2 RAE09B30E46 SLP221 P0000 60027 70130 T00780067 10078 20072 51016
Loading
Personal Weather Stations






























Interactive Weather Map
Tropical Storm Tracking
New forecast layout! Learn more

10-Day Weather Forecast

Advertisements
Track Severe Weather on mobile